createdAt,value
2023-03-12T00:01:30.308Z,-0.52
2023-03-12T00:03:23.554Z,-0.53
2023-03-12T00:05:16.601Z,-0.53
2023-03-12T00:07:09.633Z,-0.55
2023-03-12T00:09:04.323Z,-0.56
2023-03-12T00:10:57.381Z,-0.57
2023-03-12T00:12:50.330Z,-0.57
2023-03-12T00:14:43.381Z,-0.58
2023-03-12T00:16:36.423Z,-0.57
2023-03-12T00:18:29.370Z,-0.58
2023-03-12T00:20:23.657Z,-0.58
2023-03-12T00:22:17.117Z,-0.57
2023-03-12T00:24:10.162Z,-0.57
2023-03-12T00:26:06.198Z,-0.57
2023-03-12T00:27:59.436Z,-0.57
2023-03-12T00:29:52.487Z,-0.57
2023-03-12T00:31:45.557Z,-0.58
2023-03-12T00:33:38.891Z,-0.58
2023-03-12T00:35:32.798Z,-0.59
2023-03-12T00:37:26.119Z,-0.61
2023-03-12T00:39:19.171Z,-0.61
2023-03-12T00:41:12.632Z,-0.61
2023-03-12T00:43:05.680Z,-0.60
2023-03-12T00:44:58.733Z,-0.62
2023-03-12T00:46:51.842Z,-0.61
2023-03-12T00:48:45.818Z,-0.61
2023-03-12T00:50:41.362Z,-0.62
2023-03-12T00:52:34.412Z,-0.61
2023-03-12T00:54:27.464Z,-0.61
2023-03-12T00:56:20.512Z,-0.62
2023-03-12T00:58:13.774Z,-0.62
2023-03-12T01:00:10.986Z,-0.61
2023-03-12T01:02:04.067Z,-0.62
2023-03-12T01:03:58.391Z,-0.62
2023-03-12T01:05:54.793Z,-0.63
2023-03-12T01:07:47.830Z,-0.62
2023-03-12T01:09:40.921Z,-0.62
2023-03-12T01:11:35.240Z,-0.61
2023-03-12T01:13:28.518Z,-0.60
2023-03-12T01:15:22.083Z,-0.58
2023-03-12T01:17:15.032Z,-0.56
2023-03-12T01:19:07.981Z,-0.53
2023-03-12T01:21:01.092Z,-0.50
2023-03-12T01:22:54.079Z,-0.48
2023-03-12T01:24:47.442Z,-0.45
2023-03-12T01:26:40.388Z,-0.43
2023-03-12T01:28:33.444Z,-0.41
2023-03-12T01:30:26.593Z,-0.39
2023-03-12T01:32:20.399Z,-0.36
2023-03-12T01:34:13.518Z,-0.35
2023-03-12T01:36:16.922Z,-0.33
2023-03-12T01:38:15.385Z,-0.31
2023-03-12T01:40:12.940Z,-0.28
2023-03-12T01:42:06.191Z,-0.25
2023-03-12T01:44:03.612Z,-0.24
2023-03-12T01:46:26.197Z,-0.21
2023-03-12T01:48:20.580Z,-0.19
2023-03-12T01:50:13.925Z,-0.18
2023-03-12T01:52:10.865Z,-0.18
2023-03-12T01:54:16.816Z,-0.16
2023-03-12T01:56:10.443Z,-0.17
2023-03-12T01:58:06.440Z,-0.16
2023-03-12T02:00:05.638Z,-0.16
2023-03-12T02:02:08.067Z,-0.16
2023-03-12T02:04:02.348Z,-0.17
2023-03-12T02:06:02.691Z,-0.17
2023-03-12T02:07:57.355Z,-0.18
2023-03-12T02:09:50.613Z,-0.17
2023-03-12T02:11:43.559Z,-0.16
2023-03-12T02:13:37.643Z,-0.16
2023-03-12T02:15:30.686Z,-0.16
2023-03-12T02:17:23.738Z,-0.17
2023-03-12T02:19:27.746Z,-0.18
2023-03-12T02:21:24.225Z,-0.20
2023-03-12T02:23:37.606Z,-0.21
2023-03-12T02:25:40.419Z,-0.23
2023-03-12T02:27:36.706Z,-0.23
2023-03-12T02:29:33.039Z,-0.25
2023-03-12T02:31:31.767Z,-0.25
2023-03-12T02:33:25.331Z,-0.27
2023-03-12T02:35:18.329Z,-0.29
2023-03-12T02:37:11.584Z,-0.30
2023-03-12T02:39:06.192Z,-0.31
2023-03-12T02:41:05.318Z,-0.32
2023-03-12T02:42:58.633Z,-0.32
2023-03-12T02:44:51.881Z,-0.32
2023-03-12T02:46:48.513Z,-0.31
2023-03-12T02:48:42.075Z,-0.29
2023-03-12T02:50:35.129Z,-0.28
2023-03-12T02:52:30.734Z,-0.25
2023-03-12T02:54:24.506Z,-0.22
2023-03-12T02:56:17.556Z,-0.21
2023-03-12T02:58:10.605Z,-0.18
2023-03-12T03:00:12.175Z,-0.15
2023-03-12T03:02:07.044Z,-0.14
2023-03-12T03:04:01.869Z,-0.11
2023-03-12T03:05:54.993Z,-0.09
2023-03-12T03:07:48.146Z,-0.08
2023-03-12T03:09:41.608Z,-0.06
2023-03-12T03:11:35.172Z,-0.05
2023-03-12T03:13:30.430Z,-0.04
2023-03-12T03:15:23.937Z,-0.03
2023-03-12T03:17:16.985Z,-0.02
2023-03-12T03:19:11.570Z,-0.02
2023-03-12T03:21:07.098Z,-0.01
2023-03-12T03:23:00.132Z,0.00
2023-03-12T03:24:54.615Z,0.01
2023-03-12T03:26:47.564Z,0.03
2023-03-12T03:30:34.637Z,0.04
2023-03-12T03:32:29.735Z,0.06
2023-03-12T03:34:22.944Z,0.05
2023-03-12T03:36:16.548Z,0.04
2023-03-12T03:38:16.309Z,0.02
2023-03-12T03:40:12.401Z,0.01
2023-03-12T03:42:05.896Z,-0.01
2023-03-12T03:43:59.759Z,-0.03
2023-03-12T03:46:00.996Z,-0.05
2023-03-12T03:47:54.771Z,-0.07
2023-03-12T03:49:47.928Z,-0.09
2023-03-12T03:51:42.819Z,-0.11
2023-03-12T03:53:37.104Z,-0.14
2023-03-12T03:55:30.147Z,-0.14
2023-03-12T03:57:23.608Z,-0.15
2023-03-12T03:59:16.664Z,-0.15
2023-03-12T04:01:12.678Z,-0.15
2023-03-12T04:03:05.971Z,-0.15
2023-03-12T04:04:59.186Z,-0.15
2023-03-12T04:06:52.444Z,-0.14
2023-03-12T04:08:45.598Z,-0.14
2023-03-12T04:10:41.205Z,-0.13
2023-03-12T04:12:34.257Z,-0.13
2023-03-12T04:14:27.218Z,-0.12
2023-03-12T04:16:20.559Z,-0.12
2023-03-12T04:18:14.111Z,-0.12
2023-03-12T04:20:09.506Z,-0.13
2023-03-12T04:22:03.234Z,-0.13
2023-03-12T04:23:56.349Z,-0.13
2023-03-12T04:25:52.062Z,-0.12
2023-03-12T04:27:45.420Z,-0.10
2023-03-12T04:29:40.879Z,-0.10
2023-03-12T04:31:34.587Z,-0.10
2023-03-12T04:33:29.699Z,-0.11
2023-03-12T04:35:25.127Z,-0.10
2023-03-12T04:37:18.662Z,-0.09
2023-03-12T04:39:11.917Z,-0.08
2023-03-12T04:41:11.891Z,-0.08
2023-03-12T04:43:07.857Z,-0.07
2023-03-12T04:45:01.517Z,-0.07
2023-03-12T04:46:54.613Z,-0.07
2023-03-12T04:48:48.850Z,-0.06
2023-03-12T04:50:41.999Z,-0.06
2023-03-12T04:52:35.356Z,-0.05
2023-03-12T04:54:28.611Z,-0.07
2023-03-12T04:56:21.764Z,-0.08
2023-03-12T04:58:15.535Z,-0.10
2023-03-12T05:00:13.396Z,-0.10
2023-03-12T05:02:06.964Z,-0.13
2023-03-12T05:04:00.582Z,-0.15
2023-03-12T05:05:53.777Z,-0.15
2023-03-12T05:07:47.036Z,-0.16
2023-03-12T05:09:40.080Z,-0.17
2023-03-12T05:11:33.140Z,-0.16
2023-03-12T05:13:26.035Z,-0.15
2023-03-12T05:15:21.486Z,-0.16
2023-03-12T05:17:14.540Z,-0.16
2023-03-12T05:19:07.695Z,-0.18
2023-03-12T05:21:03.967Z,-0.19
2023-03-12T05:22:57.072Z,-0.18
2023-03-12T05:24:50.325Z,-0.18
2023-03-12T05:26:43.787Z,-0.18
2023-03-12T05:28:40.725Z,-0.18
2023-03-12T05:30:33.878Z,-0.17
2023-03-12T05:32:27.202Z,-0.16
2023-03-12T05:34:20.361Z,-0.16
2023-03-12T05:36:14.526Z,-0.15
2023-03-12T05:38:09.360Z,-0.13
2023-03-12T05:40:02.431Z,-0.11
2023-03-12T05:41:57.340Z,-0.11
2023-03-12T05:43:52.915Z,-0.09
2023-03-12T05:45:46.727Z,-0.08
2023-03-12T05:47:39.730Z,-0.05
2023-03-12T05:49:33.089Z,-0.03
2023-03-12T05:51:26.037Z,-0.02
2023-03-12T05:53:19.087Z,-0.02
2023-03-12T05:55:12.749Z,-0.02
2023-03-12T05:57:05.802Z,-0.02
2023-03-12T05:58:59.057Z,-0.02
2023-03-12T06:00:52.312Z,-0.02
2023-03-12T06:02:45.466Z,-0.02
2023-03-12T06:04:39.741Z,-0.02
2023-03-12T06:06:35.125Z,-0.02
2023-03-12T06:08:28.403Z,0.00
2023-03-12T06:10:21.450Z,0.01
2023-03-12T06:12:14.511Z,0.03
2023-03-12T06:14:07.557Z,0.05
2023-03-12T06:16:07.974Z,0.07
2023-03-12T06:18:01.136Z,0.08
2023-03-12T06:19:54.849Z,0.10
2023-03-12T06:21:48.252Z,0.12
2023-03-12T06:23:42.535Z,0.14
2023-03-12T06:25:38.039Z,0.14
2023-03-12T06:27:31.193Z,0.17
2023-03-12T06:29:24.350Z,0.19
2023-03-12T06:31:18.398Z,0.22
2023-03-12T06:33:11.471Z,0.24
2023-03-12T06:35:05.937Z,0.27
2023-03-12T06:36:59.619Z,0.30
2023-03-12T06:38:53.291Z,0.33
2023-03-12T06:41:04.811Z,0.37
2023-03-12T06:42:57.818Z,0.42
2023-03-12T06:44:51.279Z,0.46
2023-03-12T06:46:44.568Z,0.52
2023-03-12T06:48:41.340Z,0.60
2023-03-12T06:50:34.843Z,0.69
2023-03-12T06:52:28.193Z,0.76
2023-03-12T06:54:21.594Z,0.85
2023-03-12T06:56:15.320Z,0.97
2023-03-12T06:58:08.469Z,1.09
2023-03-12T07:00:01.550Z,1.21
2023-03-12T07:01:54.947Z,1.30
2023-03-12T07:03:48.756Z,1.41
2023-03-12T07:05:50.019Z,1.53
2023-03-12T07:07:44.068Z,1.67
2023-03-12T07:09:37.625Z,1.80
2023-03-12T07:11:30.955Z,1.92
2023-03-12T07:13:24.349Z,2.06
2023-03-12T07:15:17.398Z,2.17
2023-03-12T07:17:10.967Z,2.34
2023-03-12T07:19:04.732Z,2.54
2023-03-12T07:20:58.200Z,2.74
2023-03-12T07:22:51.687Z,2.98
2023-03-12T07:24:44.803Z,3.16
2023-03-12T07:26:38.468Z,3.31
2023-03-12T07:28:31.961Z,3.48
2023-03-12T07:30:25.507Z,3.69
2023-03-12T07:32:19.182Z,3.85
2023-03-12T07:34:12.513Z,4.01
2023-03-12T07:36:06.888Z,4.15
2023-03-12T07:38:01.210Z,4.30
2023-03-12T07:39:56.249Z,4.44
2023-03-12T07:41:49.794Z,4.55
2023-03-12T07:43:43.547Z,4.70
2023-03-12T07:45:40.901Z,4.86
2023-03-12T07:47:34.497Z,5.01
2023-03-12T07:49:28.193Z,5.14
2023-03-12T07:51:21.946Z,5.26
2023-03-12T07:53:15.713Z,5.39
2023-03-12T07:55:10.516Z,5.45
2023-03-12T07:57:04.916Z,5.50
2023-03-12T07:58:58.519Z,5.52
2023-03-12T08:00:53.821Z,5.55
2023-03-12T08:02:47.917Z,5.65
2023-03-12T08:04:41.814Z,5.77
2023-03-12T08:06:34.850Z,5.88
2023-03-12T08:08:28.650Z,6.01
2023-03-12T08:10:22.396Z,6.21
2023-03-12T08:12:15.860Z,6.38
2023-03-12T08:14:09.343Z,6.45
2023-03-12T08:16:03.331Z,6.45
2023-03-12T08:17:56.941Z,6.50
2023-03-12T08:19:49.947Z,6.56
2023-03-12T08:21:43.040Z,6.62
2023-03-12T08:23:36.499Z,6.74
2023-03-12T08:25:30.175Z,6.80
2023-03-12T08:27:23.524Z,6.90
2023-03-12T08:29:17.598Z,6.94
2023-03-12T08:31:11.267Z,6.95
2023-03-12T08:33:05.413Z,6.97
2023-03-12T08:34:59.023Z,7.07
2023-03-12T08:36:52.154Z,7.21
2023-03-12T08:38:45.718Z,7.20
2023-03-12T08:40:39.588Z,7.04
2023-03-12T08:42:32.948Z,6.94
2023-03-12T08:44:26.619Z,6.89
2023-03-12T08:46:20.252Z,7.03
2023-03-12T08:48:13.942Z,7.19
2023-03-12T08:50:08.938Z,7.23
2023-03-12T08:52:02.601Z,7.27
2023-03-12T08:53:56.165Z,7.39
2023-03-12T08:55:53.141Z,7.52
2023-03-12T08:57:46.365Z,7.64
2023-03-12T08:59:39.519Z,7.82
2023-03-12T09:01:32.475Z,8.08
2023-03-12T09:03:27.143Z,8.00
2023-03-12T09:05:21.127Z,7.67
2023-03-12T09:07:14.791Z,7.45
2023-03-12T09:09:09.171Z,7.39
2023-03-12T09:11:02.942Z,7.35
2023-03-12T09:12:56.815Z,7.44
2023-03-12T09:15:02.935Z,7.43
2023-03-12T09:16:57.966Z,7.25
2023-03-12T09:18:51.736Z,7.37
2023-03-12T09:20:44.793Z,7.59
2023-03-12T09:22:37.831Z,7.62
2023-03-12T09:24:31.833Z,7.65
2023-03-12T09:26:24.931Z,7.55
2023-03-12T09:28:20.415Z,7.35
2023-03-12T09:30:16.890Z,7.14
2023-03-12T09:32:10.559Z,7.00
2023-03-12T09:34:04.834Z,6.98
2023-03-12T09:35:59.342Z,6.92
2023-03-12T09:37:52.779Z,6.86
2023-03-12T09:39:46.036Z,6.80
2023-03-12T09:41:41.847Z,6.91
2023-03-12T09:43:43.403Z,7.03
2023-03-12T09:45:44.589Z,7.11
2023-03-12T09:47:48.035Z,7.11
2023-03-12T09:49:51.143Z,7.30
2023-03-12T09:51:51.767Z,7.56
2023-03-12T09:53:49.305Z,7.71
2023-03-12T09:55:45.699Z,7.68
2023-03-12T09:57:38.886Z,7.68
2023-03-12T09:59:31.912Z,7.64
2023-03-12T10:01:40.353Z,7.68
2023-03-12T10:03:53.167Z,7.75
2023-03-12T10:05:55.738Z,7.98
2023-03-12T10:07:56.597Z,8.25
2023-03-12T10:10:13.690Z,8.48
2023-03-12T10:12:15.749Z,8.77
2023-03-12T10:14:26.006Z,8.86
2023-03-12T10:16:53.781Z,8.91
2023-03-12T10:19:03.740Z,9.10
2023-03-12T10:21:29.381Z,9.29
2023-03-12T10:23:44.497Z,9.49
2023-03-12T10:25:54.858Z,9.71
2023-03-12T10:27:48.932Z,9.82
2023-03-12T10:29:46.320Z,9.81
2023-03-12T10:31:55.405Z,9.73
2023-03-12T10:33:54.497Z,9.59
2023-03-12T10:35:48.516Z,9.49
2023-03-12T10:37:55.015Z,9.51
2023-03-12T10:39:49.419Z,9.39
2023-03-12T10:41:44.954Z,9.26
2023-03-12T10:43:38.077Z,9.19
2023-03-12T10:45:46.390Z,9.13
2023-03-12T10:47:41.612Z,9.03
2023-03-12T10:49:37.507Z,9.00
2023-03-12T10:51:30.558Z,9.05
2023-03-12T10:53:35.577Z,9.09
2023-03-12T10:55:30.587Z,9.20
2023-03-12T10:57:40.343Z,9.29
2023-03-12T10:59:39.273Z,9.33
2023-03-12T11:01:36.281Z,9.38
2023-03-12T11:03:30.031Z,9.38
2023-03-12T11:05:30.040Z,9.29
2023-03-12T11:07:29.344Z,9.18
2023-03-12T11:09:23.021Z,9.08
2023-03-12T11:11:33.246Z,9.03
2023-03-12T11:13:28.683Z,9.04
2023-03-12T11:15:32.347Z,9.04
2023-03-12T11:17:28.282Z,9.05
2023-03-12T11:19:35.368Z,9.10
2023-03-12T11:21:31.275Z,9.12
2023-03-12T11:23:29.599Z,9.10
2023-03-12T11:25:26.726Z,9.02
2023-03-12T11:27:25.685Z,8.94
2023-03-12T11:29:40.306Z,8.88
2023-03-12T11:31:47.244Z,8.70
2023-03-12T11:33:42.107Z,8.65
2023-03-12T11:35:57.755Z,8.63
2023-03-12T11:38:03.340Z,8.56
2023-03-12T11:40:13.487Z,8.38
2023-03-12T11:42:34.393Z,8.27
2023-03-12T11:44:45.480Z,8.24
2023-03-12T11:47:16.888Z,8.40
2023-03-12T11:49:30.339Z,8.78
2023-03-12T11:51:40.697Z,9.06
2023-03-12T11:53:40.210Z,9.24
2023-03-12T11:56:08.886Z,9.28
2023-03-12T11:58:20.896Z,9.27
2023-03-12T12:00:18.994Z,9.25
2023-03-12T12:02:32.172Z,9.16
2023-03-12T12:04:53.773Z,9.11
2023-03-12T12:07:31.595Z,9.05
2023-03-12T12:09:36.939Z,8.99
2023-03-12T12:11:56.298Z,8.98
2023-03-12T12:13:49.250Z,8.88
2023-03-12T12:15:57.148Z,8.83
2023-03-12T12:18:02.384Z,8.80
2023-03-12T12:20:10.152Z,8.80
2023-03-12T12:22:16.031Z,8.68
2023-03-12T12:24:37.962Z,8.60
2023-03-12T12:26:59.065Z,8.50
2023-03-12T12:29:14.748Z,8.39
2023-03-12T12:31:24.541Z,8.35
2023-03-12T12:33:36.489Z,8.33
2023-03-12T12:35:36.866Z,8.23
2023-03-12T12:37:53.410Z,8.17
2023-03-12T12:39:52.782Z,8.12
2023-03-12T12:41:52.984Z,8.05
2023-03-12T12:43:51.297Z,7.99
2023-03-12T12:45:45.142Z,7.94
2023-03-12T12:47:51.033Z,7.84
2023-03-12T12:49:48.933Z,7.82
2023-03-12T12:51:46.440Z,7.84
2023-03-12T12:54:02.915Z,7.82
2023-03-12T12:56:07.149Z,7.83
2023-03-12T12:58:11.688Z,7.88
2023-03-12T13:00:32.686Z,7.88
2023-03-12T13:02:30.110Z,7.85
2023-03-12T13:04:32.067Z,7.85
2023-03-12T13:06:30.024Z,7.85
2023-03-12T13:08:42.972Z,7.85
2023-03-12T13:10:36.028Z,7.79
2023-03-12T13:12:52.841Z,7.71
2023-03-12T13:14:47.530Z,7.66
2023-03-12T13:16:43.287Z,7.67
2023-03-12T13:18:37.897Z,7.72
2023-03-12T13:21:12.355Z,7.75
2023-03-12T13:23:24.246Z,7.71
2023-03-12T13:25:28.144Z,7.64
2023-03-12T13:27:36.553Z,7.53
2023-03-12T13:29:29.557Z,7.48
2023-03-12T13:31:28.601Z,7.46
2023-03-12T13:34:20.029Z,7.43
2023-03-12T13:36:16.169Z,7.30
2023-03-12T13:38:18.497Z,7.26
2023-03-12T13:40:29.513Z,7.21
2023-03-12T13:42:36.451Z,7.16
2023-03-12T13:44:40.360Z,7.12
2023-03-12T13:46:41.169Z,7.11
2023-03-12T13:48:36.309Z,7.16
2023-03-12T13:50:32.675Z,7.21
2023-03-12T13:52:32.628Z,7.20
2023-03-12T13:54:31.929Z,7.16
2023-03-12T13:56:29.383Z,7.12
2023-03-12T13:58:23.880Z,7.11
2023-03-12T14:00:31.149Z,7.11
2023-03-12T14:02:32.711Z,7.13
2023-03-12T14:04:34.302Z,7.07
2023-03-12T14:06:30.556Z,6.99
2023-03-12T14:08:42.393Z,6.98
2023-03-12T14:11:03.577Z,6.98
2023-03-12T14:13:36.119Z,6.90
2023-03-12T14:15:54.156Z,6.82
2023-03-12T14:17:57.093Z,6.79
2023-03-12T14:20:17.809Z,6.81
2023-03-12T14:22:13.598Z,6.84
2023-03-12T14:24:08.599Z,6.88
2023-03-12T14:26:04.271Z,6.87
2023-03-12T14:27:57.445Z,6.80
2023-03-12T14:29:58.257Z,6.73
2023-03-12T14:31:55.427Z,6.66
2023-03-12T14:33:58.847Z,6.57
2023-03-12T14:35:57.880Z,6.51
2023-03-12T14:38:25.304Z,6.47
2023-03-12T14:40:40.850Z,6.42
2023-03-12T14:42:36.279Z,6.37
2023-03-12T14:44:30.712Z,6.35
2023-03-12T14:46:25.004Z,6.34
2023-03-12T14:48:30.564Z,6.38
2023-03-12T14:50:28.628Z,6.40
2023-03-12T14:52:27.795Z,6.39
2023-03-12T14:54:26.435Z,6.37
2023-03-12T14:56:36.041Z,6.33
2023-03-12T14:58:29.703Z,6.26
2023-03-12T15:00:25.885Z,6.21
2023-03-12T15:02:20.431Z,6.14
2023-03-12T15:04:20.068Z,6.09
2023-03-12T15:06:30.388Z,6.09
2023-03-12T15:08:24.763Z,6.04
2023-03-12T15:10:26.520Z,6.03
2023-03-12T15:12:25.401Z,6.04
2023-03-12T15:14:19.472Z,6.04
2023-03-12T15:16:12.596Z,6.05
2023-03-12T15:18:14.292Z,6.03
2023-03-12T15:20:11.716Z,5.98
2023-03-12T15:22:05.490Z,5.96
2023-03-12T15:23:58.996Z,5.92
2023-03-12T15:26:18.074Z,5.89
2023-03-12T15:28:10.969Z,5.87
2023-03-12T15:30:23.759Z,5.86
2023-03-12T15:32:20.729Z,5.82
2023-03-12T15:34:36.135Z,5.79
2023-03-12T15:36:31.984Z,5.76
2023-03-12T15:38:25.884Z,5.74
2023-03-12T15:40:32.468Z,5.74
2023-03-12T15:42:27.618Z,5.74
2023-03-12T15:45:04.250Z,5.76
2023-03-12T15:47:06.220Z,5.76
2023-03-12T15:49:00.979Z,5.74
2023-03-12T15:50:54.126Z,5.71
2023-03-12T15:53:12.678Z,5.67
2023-03-12T15:55:14.788Z,5.63
2023-03-12T15:57:23.368Z,5.61
2023-03-12T15:59:16.306Z,5.59
2023-03-12T16:01:21.423Z,5.60
2023-03-12T16:03:19.731Z,5.56
2023-03-12T16:05:12.858Z,5.50
2023-03-12T16:07:12.107Z,5.48
2023-03-12T16:09:06.374Z,5.47
2023-03-12T16:10:59.384Z,5.47
2023-03-12T16:13:00.015Z,5.46
2023-03-12T16:14:55.428Z,5.48
2023-03-12T16:16:48.937Z,5.49
2023-03-12T16:18:43.364Z,5.48
2023-03-12T16:20:36.313Z,5.47
2023-03-12T16:22:29.234Z,5.42
2023-03-12T16:24:22.312Z,5.38
2023-03-12T16:26:15.872Z,5.37
2023-03-12T16:28:13.384Z,5.38
2023-03-12T16:30:15.979Z,5.35
2023-03-12T16:32:16.746Z,5.33
2023-03-12T16:34:12.961Z,5.30
2023-03-12T16:36:13.569Z,5.29
2023-03-12T16:38:07.463Z,5.27
2023-03-12T16:40:00.444Z,5.24
2023-03-12T16:41:53.559Z,5.21
2023-03-12T16:43:50.435Z,5.20
2023-03-12T16:45:45.407Z,5.18
2023-03-12T16:47:41.056Z,5.16
2023-03-12T16:49:34.180Z,5.15
2023-03-12T16:51:30.480Z,5.12
2023-03-12T16:53:24.159Z,5.06
2023-03-12T16:55:18.896Z,5.01
2023-03-12T16:57:33.493Z,4.98
2023-03-12T16:59:28.939Z,4.96
2023-03-12T17:01:26.840Z,4.91
2023-03-12T17:03:23.116Z,4.88
2023-03-12T17:05:16.615Z,4.84
2023-03-12T17:07:10.520Z,4.81
2023-03-12T17:09:03.670Z,4.80
2023-03-12T17:10:57.602Z,4.78
2023-03-12T17:12:51.525Z,4.76
2023-03-12T17:14:44.634Z,4.73
2023-03-12T17:16:37.596Z,4.71
2023-03-12T17:18:30.894Z,4.68
2023-03-12T17:20:24.556Z,4.68
2023-03-12T17:22:19.293Z,4.67
2023-03-12T17:24:16.658Z,4.65
2023-03-12T17:26:10.342Z,4.64
2023-03-12T17:28:03.817Z,4.62
2023-03-12T17:29:57.056Z,4.60
2023-03-12T17:31:50.107Z,4.60
2023-03-12T17:33:44.707Z,4.60
2023-03-12T17:35:38.408Z,4.59
2023-03-12T17:37:31.614Z,4.59
2023-03-12T17:39:25.878Z,4.57
2023-03-12T17:41:26.635Z,4.56
2023-03-12T17:43:20.389Z,4.53
2023-03-12T17:45:13.644Z,4.51
2023-03-12T17:47:06.780Z,4.50
2023-03-12T17:49:00.095Z,4.48
2023-03-12T17:50:53.416Z,4.45
2023-03-12T17:52:46.568Z,4.39
2023-03-12T17:54:39.618Z,4.35
2023-03-12T17:56:32.667Z,4.32
2023-03-12T17:58:26.034Z,4.27
2023-03-12T18:00:22.077Z,4.21
2023-03-12T18:02:15.200Z,4.17
2023-03-12T18:04:08.624Z,4.15
2023-03-12T18:06:02.074Z,4.14
2023-03-12T18:07:56.511Z,4.12
2023-03-12T18:09:50.885Z,4.11
2023-03-12T18:11:44.342Z,4.08
2023-03-12T18:13:39.871Z,4.06
2023-03-12T18:15:34.337Z,4.06
2023-03-12T18:17:27.696Z,4.05
2023-03-12T18:19:21.051Z,4.05
2023-03-12T18:21:16.098Z,4.05
2023-03-12T18:23:09.977Z,4.05
2023-03-12T18:25:04.627Z,4.06
2023-03-12T18:26:59.398Z,4.06
2023-03-12T18:28:54.097Z,4.04
2023-03-12T18:30:48.896Z,4.02
2023-03-12T18:32:43.197Z,4.01
2023-03-12T18:34:37.745Z,4.00
2023-03-12T18:36:30.744Z,3.99
2023-03-12T18:38:24.360Z,3.99
2023-03-12T18:40:17.925Z,3.96
2023-03-12T18:42:11.278Z,3.96
2023-03-12T18:44:05.872Z,3.95
2023-03-12T18:45:59.276Z,3.94
2023-03-12T18:47:52.586Z,3.93
2023-03-12T18:49:45.939Z,3.92
2023-03-12T18:51:39.389Z,3.90
2023-03-12T18:53:34.193Z,3.88
2023-03-12T18:55:27.681Z,3.87
2023-03-12T18:57:20.810Z,3.87
2023-03-12T18:59:15.191Z,3.86
2023-03-12T19:01:08.345Z,3.84
2023-03-12T19:03:02.063Z,3.85
2023-03-12T19:04:56.311Z,3.84
2023-03-12T19:06:51.866Z,3.83
2023-03-12T19:08:45.561Z,3.82
2023-03-12T19:10:43.099Z,3.81
2023-03-12T19:12:50.804Z,3.80
2023-03-12T19:14:45.509Z,3.78
2023-03-12T19:16:38.598Z,3.77
2023-03-12T19:18:32.129Z,3.77
2023-03-12T19:20:25.625Z,3.76
2023-03-12T19:22:18.830Z,3.73
2023-03-12T19:24:12.187Z,3.72
2023-03-12T19:26:05.702Z,3.70
2023-03-12T19:27:58.699Z,3.71
2023-03-12T19:29:52.086Z,3.71
2023-03-12T19:31:45.163Z,3.69
2023-03-12T19:33:38.667Z,3.68
2023-03-12T19:35:32.571Z,3.67
2023-03-12T19:37:25.692Z,3.64
2023-03-12T19:39:21.488Z,3.63
2023-03-12T19:41:15.379Z,3.62
2023-03-12T19:43:09.092Z,3.61
2023-03-12T19:45:02.309Z,3.57
2023-03-12T19:46:58.213Z,3.54
2023-03-12T19:48:51.774Z,3.52
2023-03-12T19:50:46.273Z,3.50
2023-03-12T19:52:40.242Z,3.48
2023-03-12T19:54:33.521Z,3.46
2023-03-12T19:56:29.643Z,3.45
2023-03-12T19:58:23.406Z,3.42
2023-03-12T20:00:17.380Z,3.39
2023-03-12T20:02:13.245Z,3.38
2023-03-12T20:04:09.202Z,3.37
2023-03-12T20:06:02.902Z,3.37
2023-03-12T20:07:56.307Z,3.37
2023-03-12T20:10:13.140Z,3.37
2023-03-12T20:12:25.520Z,3.36
2023-03-12T20:14:47.086Z,3.35
2023-03-12T20:16:56.950Z,3.36
2023-03-12T20:18:52.569Z,3.35
2023-03-12T20:23:23.682Z,3.33
2023-03-12T20:25:27.576Z,3.34
2023-03-12T20:30:17.456Z,3.42
2023-03-12T20:32:46.455Z,3.46
2023-03-12T20:34:47.533Z,3.49
2023-03-12T20:36:52.033Z,3.49
2023-03-12T20:38:49.767Z,3.52
2023-03-12T20:40:46.918Z,3.53
2023-03-12T20:42:41.946Z,3.55
2023-03-12T20:44:35.760Z,3.57
2023-03-12T20:46:29.529Z,3.61
2023-03-12T20:48:23.458Z,3.63
2023-03-12T20:50:20.834Z,3.64
2023-03-12T20:52:17.845Z,3.65
2023-03-12T20:54:12.458Z,3.66
2023-03-12T20:56:07.114Z,3.66
2023-03-12T20:58:00.210Z,3.64
2023-03-12T20:59:53.304Z,3.62
2023-03-12T21:01:46.902Z,3.59
2023-03-12T21:03:40.557Z,3.56
2023-03-12T21:05:38.012Z,3.53
2023-03-12T21:07:34.486Z,3.51
2023-03-12T21:09:30.169Z,3.50
2023-03-12T21:11:39.054Z,3.46
2023-03-12T21:13:33.698Z,3.41
2023-03-12T21:15:30.027Z,3.34
2023-03-12T21:17:24.807Z,3.27
2023-03-12T21:19:22.549Z,3.22
2023-03-12T21:21:19.862Z,3.15
2023-03-12T21:23:17.019Z,3.08
2023-03-12T21:25:15.518Z,3.01
2023-03-12T21:27:13.350Z,2.94
2023-03-12T21:29:09.164Z,2.87
2023-03-12T21:31:11.855Z,2.80
2023-03-12T21:33:05.908Z,2.74
2023-03-12T21:34:58.961Z,2.68
2023-03-12T21:36:51.969Z,2.64
2023-03-12T21:38:44.956Z,2.59
2023-03-12T21:40:38.617Z,2.54
2023-03-12T21:42:33.209Z,2.48
2023-03-12T21:44:26.403Z,2.43
2023-03-12T21:46:24.757Z,2.39
2023-03-12T21:48:17.875Z,2.32
2023-03-12T21:50:11.599Z,2.29
2023-03-12T21:52:05.255Z,2.25
2023-03-12T21:53:58.910Z,2.21
2023-03-12T21:55:59.514Z,2.19
2023-03-12T21:57:52.467Z,2.14
2023-03-12T21:59:46.659Z,2.10
2023-03-12T22:01:39.695Z,2.08
2023-03-12T22:03:33.544Z,2.05
2023-03-12T22:05:26.426Z,2.06
2023-03-12T22:07:19.318Z,2.08
2023-03-12T22:09:12.352Z,2.06
2023-03-12T22:11:07.194Z,2.05
2023-03-12T22:13:00.567Z,2.04
2023-03-12T22:14:53.491Z,2.02
2023-03-12T22:16:46.421Z,2.00
2023-03-12T22:18:44.975Z,1.98
2023-03-12T22:20:37.974Z,1.98
2023-03-12T22:22:31.108Z,1.95
2023-03-12T22:24:24.177Z,1.91
2023-03-12T22:26:18.046Z,1.89
2023-03-12T22:28:10.991Z,1.87
2023-03-12T22:30:04.656Z,1.86
2023-03-12T22:31:57.614Z,1.82
2023-03-12T22:33:50.968Z,1.81
2023-03-12T22:35:45.675Z,1.80
2023-03-12T22:37:38.700Z,1.77
2023-03-12T22:39:31.761Z,1.74
2023-03-12T22:41:27.116Z,1.71
2023-03-12T22:43:20.029Z,1.69
2023-03-12T22:45:13.055Z,1.68
2023-03-12T22:47:06.207Z,1.67
2023-03-12T22:49:01.542Z,1.66
2023-03-12T22:50:54.866Z,1.64
2023-03-12T22:52:47.915Z,1.62
2023-03-12T22:54:40.966Z,1.60
2023-03-12T22:56:34.016Z,1.59
2023-03-12T22:58:27.290Z,1.56
2023-03-12T23:00:23.990Z,1.54
2023-03-12T23:02:17.053Z,1.52
2023-03-12T23:04:10.217Z,1.50
2023-03-12T23:06:04.288Z,1.49
2023-03-12T23:07:57.239Z,1.46
2023-03-12T23:09:50.185Z,1.45
2023-03-12T23:11:43.238Z,1.45
2023-03-12T23:13:38.585Z,1.44
2023-03-12T23:15:40.479Z,1.43
2023-03-12T23:17:34.598Z,1.41
2023-03-12T23:19:33.461Z,1.39
2023-03-12T23:21:26.616Z,1.39
2023-03-12T23:23:19.527Z,1.39
2023-03-12T23:25:12.525Z,1.38
2023-03-12T23:27:05.912Z,1.38
2023-03-12T23:28:59.296Z,1.37
2023-03-12T23:31:01.163Z,1.36
2023-03-12T23:32:54.319Z,1.36
2023-03-12T23:34:47.489Z,1.37
2023-03-12T23:36:40.849Z,1.35
2023-03-12T23:38:37.405Z,1.35
2023-03-12T23:40:30.639Z,1.35
2023-03-12T23:42:23.692Z,1.35
2023-03-12T23:44:16.639Z,1.35
2023-03-12T23:46:11.271Z,1.35
2023-03-12T23:48:04.889Z,1.35
2023-03-12T23:49:57.834Z,1.36
2023-03-12T23:51:50.862Z,1.37
2023-03-12T23:53:46.576Z,1.39
2023-03-12T23:55:39.546Z,1.41
2023-03-12T23:57:32.492Z,1.42
2023-03-12T23:59:25.443Z,1.44
